メインページ
METAR-TAF:

METAR-TAF

空港 :

桂林両江国際空港

桂林, 中華人民共和国

緯度: 25-20N, 経度: 110-18E, 海抜: 166m

現時点の気象観測

当レポートは23分前の23:00(UTC)に作成
北東の風 6kt
気温 24°C
湿度 83%
気圧 1011 hPa
視程: 5000m
高度2300ftの千切れ雲あり
高度5000ftの曇り

METAR: ZGKL 242300Z 04003MPS 5000 BR BKN023 OVC050 24/21 Q1011 NOSIG

時間: 07:23 (23:23 UTC)

予報

当レポートは8時間6分前の15:17(UTC)に作成
予報は24日の 18時(UTC)から 25日の 18時(UTC)まで有効
北東の風 6kt
視程: 6000m
高度4000ftの千切れ雲あり

TAF: ZGKL 241517Z 2418/2518 05003MPS 6000 BKN040 TX31/2507Z TN21/2422Z

4,000以上の空港の気象観測と天気予報(METAR報とTAF報)

利用可能な観測所は地図上に黄色い丸と赤い丸で示す。

丸の上にカーソルを重ねると観測所名を参照できる。

次にクリックすると気象観測と天気予報を参照できる。

マップの切り替え:黒色「×」印の緑ボタンをクリックして拡大、「-」印の緑ボタンをクリックして縮小、緑色の三角印をクリックして隣りの地図に切り替え


METAR-TAF: